Poole, Kentucky
Current Conditions -  °F | °C
As of 10:55 AM on Saturday 22 Nov 2014 (Local Time) from KEHR Reporting Station
Overcast Overcast  
Wind Chill: 63°   Ceiling: 11000
Heat Index: 63°   Visibility: 10mi
Dew Point: 39°   Wind: 22mph
Humidity: 42%   Direction: 210°SSW
Pressure: 30.2"   Gusts: 26mph
Location:  37.64°N, 87.64°W
Report Text: KEHR 221655Z AUTO 21019G23KT 10SM OVC110 17/04 A3020 RMK AO1
Loading
Personal Weather Stations






























Interactive Weather Map New forecast layout! Learn more

10-Day Weather Forecast

Advertisements
Track Severe Weather on mobile